sensor_id;sensor_type;location;lat;lon;timestamp;P1;durP1;ratioP1;P2;durP2;ratioP2
37065;SDS011;22981;43.080;25.550;2024-03-22T00:00:00;20.70;;;9.58;;
37065;SDS011;22981;43.080;25.550;2024-03-22T00:02:28;17.77;;;9.00;;
37065;SDS011;22981;43.080;25.550;2024-03-22T00:04:55;11.45;;;7.92;;
37065;SDS011;22981;43.080;25.550;2024-03-22T00:07:23;10.60;;;6.55;;
37065;SDS011;22981;43.080;25.550;2024-03-22T00:09:50;10.72;;;5.83;;
37065;SDS011;22981;43.080;25.550;2024-03-22T00:12:18;8.80;;;5.85;;
37065;SDS011;22981;43.080;25.550;2024-03-22T00:14:45;7.75;;;5.70;;
37065;SDS011;22981;43.080;25.550;2024-03-22T00:17:13;6.70;;;5.00;;
37065;SDS011;22981;43.080;25.550;2024-03-22T00:19:41;7.40;;;5.75;;
37065;SDS011;22981;43.080;25.550;2024-03-22T00:22:08;7.37;;;4.92;;
37065;SDS011;22981;43.080;25.550;2024-03-22T00:24:36;5.05;;;3.77;;
37065;SDS011;22981;43.080;25.550;2024-03-22T00:27:04;5.97;;;3.90;;
37065;SDS011;22981;43.080;25.550;2024-03-22T00:29:31;5.53;;;4.03;;
37065;SDS011;22981;43.080;25.550;2024-03-22T00:31:59;4.42;;;4.00;;
37065;SDS011;22981;43.080;25.550;2024-03-22T00:34:26;4.42;;;3.72;;
37065;SDS011;22981;43.080;25.550;2024-03-22T00:36:54;5.03;;;3.92;;
37065;SDS011;22981;43.080;25.550;2024-03-22T00:39:21;5.20;;;3.83;;
37065;SDS011;22981;43.080;25.550;2024-03-22T00:41:49;5.80;;;3.80;;
37065;SDS011;22981;43.080;25.550;2024-03-22T00:44:16;3.62;;;3.05;;
37065;SDS011;22981;43.080;25.550;2024-03-22T00:46:44;4.12;;;3.62;;
37065;SDS011;22981;43.080;25.550;2024-03-22T00:49:11;5.08;;;4.00;;
37065;SDS011;22981;43.080;25.550;2024-03-22T00:51:39;3.77;;;3.35;;
37065;SDS011;22981;43.080;25.550;2024-03-22T00:54:08;5.78;;;4.80;;
37065;SDS011;22981;43.080;25.550;2024-03-22T00:56:36;5.83;;;4.53;;
37065;SDS011;22981;43.080;25.550;2024-03-22T00:59:03;5.78;;;5.10;;
37065;SDS011;22981;43.080;25.550;2024-03-22T01:01:32;6.05;;;4.95;;
37065;SDS011;22981;43.080;25.550;2024-03-22T01:03:59;5.03;;;4.53;;
37065;SDS011;22981;43.080;25.550;2024-03-22T01:06:27;6.53;;;4.75;;
37065;SDS011;22981;43.080;25.550;2024-03-22T01:08:55;5.97;;;4.67;;
37065;SDS011;22981;43.080;25.550;2024-03-22T01:11:22;6.37;;;5.03;;
37065;SDS011;22981;43.080;25.550;2024-03-22T01:13:50;7.92;;;5.10;;
37065;SDS011;22981;43.080;25.550;2024-03-22T01:16:17;6.03;;;5.00;;
37065;SDS011;22981;43.080;25.550;2024-03-22T01:18:45;4.85;;;4.17;;
37065;SDS011;22981;43.080;25.550;2024-03-22T01:21:13;6.50;;;4.45;;
37065;SDS011;22981;43.080;25.550;2024-03-22T01:23:40;6.60;;;5.15;;
37065;SDS011;22981;43.080;25.550;2024-03-22T01:26:08;7.65;;;5.58;;
37065;SDS011;22981;43.080;25.550;2024-03-22T01:28:35;8.78;;;6.00;;
37065;SDS011;22981;43.080;25.550;2024-03-22T01:31:03;8.75;;;5.92;;
37065;SDS011;22981;43.080;25.550;2024-03-22T01:33:30;9.15;;;5.92;;
37065;SDS011;22981;43.080;25.550;2024-03-22T01:35:58;8.28;;;5.65;;
37065;SDS011;22981;43.080;25.550;2024-03-22T01:38:26;9.63;;;6.10;;
37065;SDS011;22981;43.080;25.550;2024-03-22T01:40:53;9.00;;;5.70;;
37065;SDS011;22981;43.080;25.550;2024-03-22T01:43:21;8.10;;;5.75;;
37065;SDS011;22981;43.080;25.550;2024-03-22T01:45:48;8.73;;;6.00;;
37065;SDS011;22981;43.080;25.550;2024-03-22T01:48:16;8.05;;;5.65;;
37065;SDS011;22981;43.080;25.550;2024-03-22T01:50:44;9.03;;;5.40;;
37065;SDS011;22981;43.080;25.550;2024-03-22T01:53:11;8.78;;;6.05;;
37065;SDS011;22981;43.080;25.550;2024-03-22T01:55:39;8.60;;;5.87;;
37065;SDS011;22981;43.080;25.550;2024-03-22T01:58:06;8.98;;;6.00;;
37065;SDS011;22981;43.080;25.550;2024-03-22T02:00:35;7.97;;;5.70;;
37065;SDS011;22981;43.080;25.550;2024-03-22T02:03:02;7.05;;;5.28;;
37065;SDS011;22981;43.080;25.550;2024-03-22T02:05:30;7.75;;;5.37;;
37065;SDS011;22981;43.080;25.550;2024-03-22T02:07:57;8.15;;;4.60;;
37065;SDS011;22981;43.080;25.550;2024-03-22T02:10:25;8.28;;;6.15;;
37065;SDS011;22981;43.080;25.550;2024-03-22T02:12:53;6.47;;;5.30;;
37065;SDS011;22981;43.080;25.550;2024-03-22T02:15:20;6.83;;;4.85;;
37065;SDS011;22981;43.080;25.550;2024-03-22T02:17:48;10.50;;;5.60;;
37065;SDS011;22981;43.080;25.550;2024-03-22T02:20:15;6.22;;;5.28;;
37065;SDS011;22981;43.080;25.550;2024-03-22T02:22:43;8.25;;;5.00;;
37065;SDS011;22981;43.080;25.550;2024-03-22T02:25:10;6.30;;;5.53;;
37065;SDS011;22981;43.080;25.550;2024-03-22T02:27:38;5.42;;;4.90;;
37065;SDS011;22981;43.080;25.550;2024-03-22T02:30:06;6.15;;;4.95;;
37065;SDS011;22981;43.080;25.550;2024-03-22T02:32:34;7.08;;;4.80;;
37065;SDS011;22981;43.080;25.550;2024-03-22T02:35:03;5.80;;;5.10;;
37065;SDS011;22981;43.080;25.550;2024-03-22T02:37:30;6.42;;;5.08;;
37065;SDS011;22981;43.080;25.550;2024-03-22T02:39:58;6.90;;;4.92;;
37065;SDS011;22981;43.080;25.550;2024-03-22T02:42:25;5.53;;;4.47;;
37065;SDS011;22981;43.080;25.550;2024-03-22T02:44:53;4.75;;;3.62;;
37065;SDS011;22981;43.080;25.550;2024-03-22T02:47:20;4.28;;;3.52;;
37065;SDS011;22981;43.080;25.550;2024-03-22T02:49:48;8.45;;;4.03;;
37065;SDS011;22981;43.080;25.550;2024-03-22T02:52:16;5.42;;;4.37;;
37065;SDS011;22981;43.080;25.550;2024-03-22T02:54:43;4.87;;;4.20;;
37065;SDS011;22981;43.080;25.550;2024-03-22T02:57:11;7.83;;;4.75;;
37065;SDS011;22981;43.080;25.550;2024-03-22T02:59:38;5.95;;;4.58;;
37065;SDS011;22981;43.080;25.550;2024-03-22T03:02:06;9.23;;;4.75;;
37065;SDS011;22981;43.080;25.550;2024-03-22T03:04:33;6.17;;;4.78;;
37065;SDS011;22981;43.080;25.550;2024-03-22T03:07:01;6.35;;;4.67;;
37065;SDS011;22981;43.080;25.550;2024-03-22T03:09:29;7.10;;;5.58;;
37065;SDS011;22981;43.080;25.550;2024-03-22T03:11:56;7.58;;;5.28;;
37065;SDS011;22981;43.080;25.550;2024-03-22T03:14:24;6.65;;;4.70;;
37065;SDS011;22981;43.080;25.550;2024-03-22T03:16:51;6.05;;;4.70;;
37065;SDS011;22981;43.080;25.550;2024-03-22T03:19:19;6.60;;;4.40;;
37065;SDS011;22981;43.080;25.550;2024-03-22T03:21:46;5.22;;;4.70;;
37065;SDS011;22981;43.080;25.550;2024-03-22T03:24:14;5.92;;;4.67;;
37065;SDS011;22981;43.080;25.550;2024-03-22T03:26:41;8.48;;;5.62;;
37065;SDS011;22981;43.080;25.550;2024-03-22T03:29:09;11.20;;;5.92;;
37065;SDS011;22981;43.080;25.550;2024-03-22T03:31:36;10.38;;;8.05;;
37065;SDS011;22981;43.080;25.550;2024-03-22T03:34:04;11.57;;;8.98;;
37065;SDS011;22981;43.080;25.550;2024-03-22T03:36:32;19.00;;;12.00;;
37065;SDS011;22981;43.080;25.550;2024-03-22T03:38:59;15.23;;;9.48;;
37065;SDS011;22981;43.080;25.550;2024-03-22T03:41:27;10.98;;;7.03;;
37065;SDS011;22981;43.080;25.550;2024-03-22T03:43:54;17.50;;;11.12;;
37065;SDS011;22981;43.080;25.550;2024-03-22T03:46:22;20.15;;;12.88;;
37065;SDS011;22981;43.080;25.550;2024-03-22T03:48:50;15.23;;;10.38;;
37065;SDS011;22981;43.080;25.550;2024-03-22T03:51:17;20.17;;;11.78;;
37065;SDS011;22981;43.080;25.550;2024-03-22T03:53:45;19.80;;;12.65;;
37065;SDS011;22981;43.080;25.550;2024-03-22T03:56:12;15.95;;;9.40;;
37065;SDS011;22981;43.080;25.550;2024-03-22T03:58:40;12.63;;;7.50;;
37065;SDS011;22981;43.080;25.550;2024-03-22T04:01:07;10.08;;;7.08;;
37065;SDS011;22981;43.080;25.550;2024-03-22T04:03:35;17.37;;;12.00;;
37065;SDS011;22981;43.080;25.550;2024-03-22T04:06:03;14.45;;;10.72;;
37065;SDS011;22981;43.080;25.550;2024-03-22T04:08:30;15.10;;;10.68;;
37065;SDS011;22981;43.080;25.550;2024-03-22T04:10:59;15.45;;;11.20;;
37065;SDS011;22981;43.080;25.550;2024-03-22T04:13:28;16.57;;;11.93;;
37065;SDS011;22981;43.080;25.550;2024-03-22T04:15:58;35.05;;;25.08;;
37065;SDS011;22981;43.080;25.550;2024-03-22T04:18:25;32.08;;;21.37;;
37065;SDS011;22981;43.080;25.550;2024-03-22T04:20:53;26.65;;;18.52;;
37065;SDS011;22981;43.080;25.550;2024-03-22T04:23:22;23.35;;;17.20;;
37065;SDS011;22981;43.080;25.550;2024-03-22T04:25:57;24.27;;;17.95;;
37065;SDS011;22981;43.080;25.550;2024-03-22T04:28:26;22.90;;;17.25;;
37065;SDS011;22981;43.080;25.550;2024-03-22T04:30:55;17.42;;;13.48;;
37065;SDS011;22981;43.080;25.550;2024-03-22T04:33:24;17.57;;;13.13;;
37065;SDS011;22981;43.080;25.550;2024-03-22T04:35:53;16.93;;;11.57;;
37065;SDS011;22981;43.080;25.550;2024-03-22T04:38:22;15.93;;;11.65;;
37065;SDS011;22981;43.080;25.550;2024-03-22T04:40:50;17.05;;;12.45;;
37065;SDS011;22981;43.080;25.550;2024-03-22T04:43:18;17.27;;;12.00;;
37065;SDS011;22981;43.080;25.550;2024-03-22T04:45:46;16.12;;;12.50;;
37065;SDS011;22981;43.080;25.550;2024-03-22T04:48:14;13.22;;;9.98;;
37065;SDS011;22981;43.080;25.550;2024-03-22T04:50:44;21.90;;;14.93;;
37065;SDS011;22981;43.080;25.550;2024-03-22T04:53:13;26.75;;;15.83;;
37065;SDS011;22981;43.080;25.550;2024-03-22T04:55:42;19.65;;;12.15;;
37065;SDS011;22981;43.080;25.550;2024-03-22T04:58:15;21.57;;;14.70;;
37065;SDS011;22981;43.080;25.550;2024-03-22T05:00:44;20.27;;;14.43;;
37065;SDS011;22981;43.080;25.550;2024-03-22T05:03:12;110.63;;;44.67;;
37065;SDS011;22981;43.080;25.550;2024-03-22T05:05:40;167.68;;;65.05;;
37065;SDS011;22981;43.080;25.550;2024-03-22T05:08:08;44.58;;;27.67;;
37065;SDS011;22981;43.080;25.550;2024-03-22T05:10:36;22.02;;;14.75;;
37065;SDS011;22981;43.080;25.550;2024-03-22T05:13:04;26.35;;;18.32;;
37065;SDS011;22981;43.080;25.550;2024-03-22T05:15:31;22.48;;;14.50;;
37065;SDS011;22981;43.080;25.550;2024-03-22T05:17:59;13.78;;;8.28;;
37065;SDS011;22981;43.080;25.550;2024-03-22T05:20:26;25.60;;;15.08;;
37065;SDS011;22981;43.080;25.550;2024-03-22T05:22:54;16.32;;;10.53;;
37065;SDS011;22981;43.080;25.550;2024-03-22T05:25:22;10.75;;;7.37;;
37065;SDS011;22981;43.080;25.550;2024-03-22T05:27:49;12.85;;;8.55;;
37065;SDS011;22981;43.080;25.550;2024-03-22T05:30:17;7.33;;;5.90;;
37065;SDS011;22981;43.080;25.550;2024-03-22T05:32:45;14.30;;;9.85;;
37065;SDS011;22981;43.080;25.550;2024-03-22T05:35:13;13.15;;;8.65;;
37065;SDS011;22981;43.080;25.550;2024-03-22T05:37:40;12.70;;;8.65;;
37065;SDS011;22981;43.080;25.550;2024-03-22T05:40:08;9.53;;;6.47;;
37065;SDS011;22981;43.080;25.550;2024-03-22T05:42:36;9.70;;;6.42;;
37065;SDS011;22981;43.080;25.550;2024-03-22T05:45:04;6.37;;;4.95;;
37065;SDS011;22981;43.080;25.550;2024-03-22T05:47:32;6.95;;;4.95;;
37065;SDS011;22981;43.080;25.550;2024-03-22T05:49:59;6.37;;;4.35;;
37065;SDS011;22981;43.080;25.550;2024-03-22T05:52:27;7.70;;;4.87;;
37065;SDS011;22981;43.080;25.550;2024-03-22T05:54:55;5.55;;;4.60;;
37065;SDS011;22981;43.080;25.550;2024-03-22T05:57:22;6.50;;;4.95;;
37065;SDS011;22981;43.080;25.550;2024-03-22T05:59:50;5.83;;;4.67;;
37065;SDS011;22981;43.080;25.550;2024-03-22T06:02:19;6.62;;;5.22;;
37065;SDS011;22981;43.080;25.550;2024-03-22T06:04:46;6.70;;;5.20;;
37065;SDS011;22981;43.080;25.550;2024-03-22T06:07:14;10.08;;;6.53;;
37065;SDS011;22981;43.080;25.550;2024-03-22T06:09:43;5.78;;;4.60;;
37065;SDS011;22981;43.080;25.550;2024-03-22T06:12:13;7.53;;;4.62;;
37065;SDS011;22981;43.080;25.550;2024-03-22T06:14:41;5.12;;;4.00;;
37065;SDS011;22981;43.080;25.550;2024-03-22T06:17:09;5.25;;;3.80;;
37065;SDS011;22981;43.080;25.550;2024-03-22T06:19:37;5.20;;;4.10;;
37065;SDS011;22981;43.080;25.550;2024-03-22T06:22:06;6.83;;;4.22;;
37065;SDS011;22981;43.080;25.550;2024-03-22T06:24:34;5.80;;;4.40;;
37065;SDS011;22981;43.080;25.550;2024-03-22T06:27:01;3.60;;;3.20;;
37065;SDS011;22981;43.080;25.550;2024-03-22T06:29:29;4.15;;;3.62;;
37065;SDS011;22981;43.080;25.550;2024-03-22T06:31:57;4.08;;;3.67;;
37065;SDS011;22981;43.080;25.550;2024-03-22T06:34:24;6.10;;;4.12;;
37065;SDS011;22981;43.080;25.550;2024-03-22T06:36:52;4.08;;;3.65;;
37065;SDS011;22981;43.080;25.550;2024-03-22T06:39:19;5.12;;;4.10;;
37065;SDS011;22981;43.080;25.550;2024-03-22T06:41:47;5.33;;;4.47;;
37065;SDS011;22981;43.080;25.550;2024-03-22T06:44:15;6.00;;;4.03;;
37065;SDS011;22981;43.080;25.550;2024-03-22T06:46:42;4.05;;;3.62;;
37065;SDS011;22981;43.080;25.550;2024-03-22T06:49:10;7.78;;;6.53;;
37065;SDS011;22981;43.080;25.550;2024-03-22T06:51:37;5.17;;;4.47;;
37065;SDS011;22981;43.080;25.550;2024-03-22T06:54:05;5.72;;;4.03;;
37065;SDS011;22981;43.080;25.550;2024-03-22T06:56:32;6.70;;;5.25;;
37065;SDS011;22981;43.080;25.550;2024-03-22T06:59:00;3.80;;;3.40;;
37065;SDS011;22981;43.080;25.550;2024-03-22T07:01:27;4.05;;;3.65;;
37065;SDS011;22981;43.080;25.550;2024-03-22T07:03:55;4.20;;;3.35;;
37065;SDS011;22981;43.080;25.550;2024-03-22T07:06:23;6.72;;;4.70;;
37065;SDS011;22981;43.080;25.550;2024-03-22T07:08:50;5.80;;;4.42;;
37065;SDS011;22981;43.080;25.550;2024-03-22T07:11:18;5.03;;;3.58;;
37065;SDS011;22981;43.080;25.550;2024-03-22T07:13:46;4.85;;;3.90;;
37065;SDS011;22981;43.080;25.550;2024-03-22T07:16:13;10.35;;;8.23;;
37065;SDS011;22981;43.080;25.550;2024-03-22T07:18:41;4.72;;;3.70;;
37065;SDS011;22981;43.080;25.550;2024-03-22T07:21:08;6.35;;;4.42;;
37065;SDS011;22981;43.080;25.550;2024-03-22T07:23:36;4.67;;;4.28;;
37065;SDS011;22981;43.080;25.550;2024-03-22T07:26:03;3.67;;;3.30;;
37065;SDS011;22981;43.080;25.550;2024-03-22T07:28:33;4.25;;;3.85;;
37065;SDS011;22981;43.080;25.550;2024-03-22T07:31:00;3.80;;;3.45;;
37065;SDS011;22981;43.080;25.550;2024-03-22T07:33:28;4.85;;;4.35;;
37065;SDS011;22981;43.080;25.550;2024-03-22T07:35:55;4.92;;;4.17;;
37065;SDS011;22981;43.080;25.550;2024-03-22T07:38:23;4.65;;;3.80;;
37065;SDS011;22981;43.080;25.550;2024-03-22T07:40:50;5.03;;;3.58;;
37065;SDS011;22981;43.080;25.550;2024-03-22T07:43:18;5.00;;;4.30;;
37065;SDS011;22981;43.080;25.550;2024-03-22T07:45:46;4.60;;;4.17;;
37065;SDS011;22981;43.080;25.550;2024-03-22T07:48:13;4.78;;;3.77;;
37065;SDS011;22981;43.080;25.550;2024-03-22T07:50:41;5.58;;;4.33;;
37065;SDS011;22981;43.080;25.550;2024-03-22T07:53:09;5.85;;;3.58;;
37065;SDS011;22981;43.080;25.550;2024-03-22T07:55:38;4.45;;;4.05;;
37065;SDS011;22981;43.080;25.550;2024-03-22T07:58:06;5.42;;;4.40;;
37065;SDS011;22981;43.080;25.550;2024-03-22T08:00:33;5.17;;;4.67;;
37065;SDS011;22981;43.080;25.550;2024-03-22T08:03:01;8.13;;;6.33;;
37065;SDS011;22981;43.080;25.550;2024-03-22T08:05:29;6.67;;;3.90;;
37065;SDS011;22981;43.080;25.550;2024-03-22T08:07:56;4.00;;;3.60;;
37065;SDS011;22981;43.080;25.550;2024-03-22T08:10:24;4.50;;;3.83;;
37065;SDS011;22981;43.080;25.550;2024-03-22T08:12:51;4.70;;;4.00;;
37065;SDS011;22981;43.080;25.550;2024-03-22T08:15:19;4.50;;;4.00;;
37065;SDS011;22981;43.080;25.550;2024-03-22T08:17:47;4.25;;;3.85;;
37065;SDS011;22981;43.080;25.550;2024-03-22T08:20:14;3.95;;;3.55;;
37065;SDS011;22981;43.080;25.550;2024-03-22T08:22:42;5.87;;;3.80;;
37065;SDS011;22981;43.080;25.550;2024-03-22T08:25:10;4.90;;;4.05;;
37065;SDS011;22981;43.080;25.550;2024-03-22T08:27:38;4.42;;;3.75;;
37065;SDS011;22981;43.080;25.550;2024-03-22T08:30:06;4.75;;;4.08;;
37065;SDS011;22981;43.080;25.550;2024-03-22T08:32:35;5.40;;;4.50;;
37065;SDS011;22981;43.080;25.550;2024-03-22T08:35:03;5.28;;;4.22;;
37065;SDS011;22981;43.080;25.550;2024-03-22T08:37:31;5.20;;;4.15;;
37065;SDS011;22981;43.080;25.550;2024-03-22T08:40:00;4.97;;;4.03;;
37065;SDS011;22981;43.080;25.550;2024-03-22T08:42:29;5.30;;;4.80;;
37065;SDS011;22981;43.080;25.550;2024-03-22T08:44:56;4.20;;;3.72;;
37065;SDS011;22981;43.080;25.550;2024-03-22T08:47:25;4.33;;;3.90;;
37065;SDS011;22981;43.080;25.550;2024-03-22T08:49:52;6.12;;;4.25;;
37065;SDS011;22981;43.080;25.550;2024-03-22T08:52:21;4.78;;;4.10;;
37065;SDS011;22981;43.080;25.550;2024-03-22T08:54:50;5.25;;;4.40;;
37065;SDS011;22981;43.080;25.550;2024-03-22T08:57:19;4.72;;;4.15;;
37065;SDS011;22981;43.080;25.550;2024-03-22T08:59:47;6.62;;;4.30;;
37065;SDS011;22981;43.080;25.550;2024-03-22T09:02:15;6.87;;;4.95;;
37065;SDS011;22981;43.080;25.550;2024-03-22T09:04:42;8.73;;;6.08;;
37065;SDS011;22981;43.080;25.550;2024-03-22T09:07:10;5.47;;;4.87;;
37065;SDS011;22981;43.080;25.550;2024-03-22T09:09:37;5.08;;;4.25;;
37065;SDS011;22981;43.080;25.550;2024-03-22T09:12:06;5.75;;;4.70;;
37065;SDS011;22981;43.080;25.550;2024-03-22T09:14:33;7.75;;;4.47;;
37065;SDS011;22981;43.080;25.550;2024-03-22T09:17:01;9.18;;;4.83;;
37065;SDS011;22981;43.080;25.550;2024-03-22T09:19:29;5.10;;;4.35;;
37065;SDS011;22981;43.080;25.550;2024-03-22T09:21:57;4.92;;;4.42;;
37065;SDS011;22981;43.080;25.550;2024-03-22T09:24:24;4.83;;;4.33;;
37065;SDS011;22981;43.080;25.550;2024-03-22T09:26:52;4.72;;;4.22;;
37065;SDS011;22981;43.080;25.550;2024-03-22T09:29:19;5.10;;;4.20;;
37065;SDS011;22981;43.080;25.550;2024-03-22T09:31:47;6.95;;;4.22;;
37065;SDS011;22981;43.080;25.550;2024-03-22T09:34:16;4.92;;;4.42;;
37065;SDS011;22981;43.080;25.550;2024-03-22T09:36:45;5.50;;;4.33;;
37065;SDS011;22981;43.080;25.550;2024-03-22T09:39:13;5.72;;;3.55;;
37065;SDS011;22981;43.080;25.550;2024-03-22T09:41:43;3.20;;;2.80;;
37065;SDS011;22981;43.080;25.550;2024-03-22T09:44:12;3.30;;;3.00;;
37065;SDS011;22981;43.080;25.550;2024-03-22T09:46:40;3.10;;;2.80;;
37065;SDS011;22981;43.080;25.550;2024-03-22T09:49:09;3.67;;;3.20;;
37065;SDS011;22981;43.080;25.550;2024-03-22T09:51:43;4.22;;;3.30;;
37065;SDS011;22981;43.080;25.550;2024-03-22T09:54:11;3.52;;;3.22;;
37065;SDS011;22981;43.080;25.550;2024-03-22T09:56:38;3.40;;;3.08;;
37065;SDS011;22981;43.080;25.550;2024-03-22T09:59:06;3.12;;;2.83;;
37065;SDS011;22981;43.080;25.550;2024-03-22T10:01:34;2.98;;;2.77;;
37065;SDS011;22981;43.080;25.550;2024-03-22T10:04:03;4.15;;;3.40;;
37065;SDS011;22981;43.080;25.550;2024-03-22T10:06:30;3.70;;;2.90;;
37065;SDS011;22981;43.080;25.550;2024-03-22T10:08:58;3.10;;;2.80;;
37065;SDS011;22981;43.080;25.550;2024-03-22T10:11:27;5.58;;;3.45;;
37065;SDS011;22981;43.080;25.550;2024-03-22T10:13:54;3.62;;;3.08;;
37065;SDS011;22981;43.080;25.550;2024-03-22T10:16:22;4.20;;;2.80;;
37065;SDS011;22981;43.080;25.550;2024-03-22T10:18:49;3.37;;;3.08;;
37065;SDS011;22981;43.080;25.550;2024-03-22T10:21:17;4.75;;;4.25;;
37065;SDS011;22981;43.080;25.550;2024-03-22T10:23:46;3.20;;;2.87;;
37065;SDS011;22981;43.080;25.550;2024-03-22T10:26:15;3.17;;;2.87;;
37065;SDS011;22981;43.080;25.550;2024-03-22T10:28:46;2.62;;;2.42;;
37065;SDS011;22981;43.080;25.550;2024-03-22T10:31:14;3.30;;;3.00;;
37065;SDS011;22981;43.080;25.550;2024-03-22T10:33:42;2.60;;;2.40;;
37065;SDS011;22981;43.080;25.550;2024-03-22T10:36:12;2.77;;;2.58;;
37065;SDS011;22981;43.080;25.550;2024-03-22T10:38:40;3.10;;;2.80;;
37065;SDS011;22981;43.080;25.550;2024-03-22T10:41:09;2.75;;;2.55;;
37065;SDS011;22981;43.080;25.550;2024-03-22T10:43:37;3.58;;;3.22;;
37065;SDS011;22981;43.080;25.550;2024-03-22T10:46:05;4.62;;;3.25;;
37065;SDS011;22981;43.080;25.550;2024-03-22T10:48:34;3.40;;;3.10;;
37065;SDS011;22981;43.080;25.550;2024-03-22T10:51:04;3.45;;;3.15;;
37065;SDS011;22981;43.080;25.550;2024-03-22T10:53:33;3.70;;;3.30;;
37065;SDS011;22981;43.080;25.550;2024-03-22T10:56:01;3.42;;;3.12;;
37065;SDS011;22981;43.080;25.550;2024-03-22T10:58:31;3.50;;;3.20;;
37065;SDS011;22981;43.080;25.550;2024-03-22T11:00:59;3.15;;;2.85;;
37065;SDS011;22981;43.080;25.550;2024-03-22T11:03:28;2.72;;;2.50;;
37065;SDS011;22981;43.080;25.550;2024-03-22T11:05:56;3.08;;;2.70;;
37065;SDS011;22981;43.080;25.550;2024-03-22T11:10:54;2.55;;;2.35;;
37065;SDS011;22981;43.080;25.550;2024-03-22T11:13:23;3.25;;;2.95;;
37065;SDS011;22981;43.080;25.550;2024-03-22T11:15:51;3.52;;;3.22;;
37065;SDS011;22981;43.080;25.550;2024-03-22T11:18:20;3.00;;;2.70;;
37065;SDS011;22981;43.080;25.550;2024-03-22T11:20:47;2.70;;;2.47;;
37065;SDS011;22981;43.080;25.550;2024-03-22T11:23:15;3.30;;;2.77;;
37065;SDS011;22981;43.080;25.550;2024-03-22T11:25:42;3.52;;;3.20;;
37065;SDS011;22981;43.080;25.550;2024-03-22T11:28:10;3.35;;;3.05;;
37065;SDS011;22981;43.080;25.550;2024-03-22T11:30:37;3.67;;;1.98;;
37065;SDS011;22981;43.080;25.550;2024-03-22T11:33:05;4.72;;;2.25;;
37065;SDS011;22981;43.080;25.550;2024-03-22T11:35:33;2.15;;;1.95;;
37065;SDS011;22981;43.080;25.550;2024-03-22T11:38:01;2.90;;;2.60;;
37065;SDS011;22981;43.080;25.550;2024-03-22T11:40:30;2.85;;;2.47;;
37065;SDS011;22981;43.080;25.550;2024-03-22T11:42:59;3.22;;;2.92;;
37065;SDS011;22981;43.080;25.550;2024-03-22T11:45:29;3.10;;;2.90;;
37065;SDS011;22981;43.080;25.550;2024-03-22T11:48:01;4.12;;;3.17;;
37065;SDS011;22981;43.080;25.550;2024-03-22T11:50:29;3.30;;;3.00;;
37065;SDS011;22981;43.080;25.550;2024-03-22T11:52:56;3.95;;;2.80;;
37065;SDS011;22981;43.080;25.550;2024-03-22T11:55:26;2.70;;;2.47;;
37065;SDS011;22981;43.080;25.550;2024-03-22T11:57:53;3.15;;;2.67;;
37065;SDS011;22981;43.080;25.550;2024-03-22T12:00:22;3.47;;;2.75;;
37065;SDS011;22981;43.080;25.550;2024-03-22T12:02:52;3.72;;;2.80;;
37065;SDS011;22981;43.080;25.550;2024-03-22T12:05:20;3.12;;;2.67;;
37065;SDS011;22981;43.080;25.550;2024-03-22T12:07:48;3.70;;;3.40;;
37065;SDS011;22981;43.080;25.550;2024-03-22T12:10:20;3.40;;;3.10;;
37065;SDS011;22981;43.080;25.550;2024-03-22T12:12:47;3.20;;;2.90;;
37065;SDS011;22981;43.080;25.550;2024-03-22T12:15:15;4.20;;;3.40;;
37065;SDS011;22981;43.080;25.550;2024-03-22T12:17:42;3.65;;;3.15;;
37065;SDS011;22981;43.080;25.550;2024-03-22T12:20:10;4.25;;;3.45;;
37065;SDS011;22981;43.080;25.550;2024-03-22T12:22:39;5.55;;;3.30;;
37065;SDS011;22981;43.080;25.550;2024-03-22T12:25:07;10.00;;;7.25;;
37065;SDS011;22981;43.080;25.550;2024-03-22T12:27:36;4.70;;;4.15;;
37065;SDS011;22981;43.080;25.550;2024-03-22T12:30:04;4.80;;;3.65;;
37065;SDS011;22981;43.080;25.550;2024-03-22T12:32:33;6.47;;;3.70;;
37065;SDS011;22981;43.080;25.550;2024-03-22T12:35:01;4.00;;;3.60;;
37065;SDS011;22981;43.080;25.550;2024-03-22T12:37:29;19.90;;;6.00;;
37065;SDS011;22981;43.080;25.550;2024-03-22T12:39:57;7.37;;;4.15;;
37065;SDS011;22981;43.080;25.550;2024-03-22T12:42:25;5.60;;;4.20;;
37065;SDS011;22981;43.080;25.550;2024-03-22T12:44:52;9.70;;;4.45;;
37065;SDS011;22981;43.080;25.550;2024-03-22T12:47:20;16.27;;;6.15;;
37065;SDS011;22981;43.080;25.550;2024-03-22T12:49:47;5.20;;;3.37;;
37065;SDS011;22981;43.080;25.550;2024-03-22T12:52:15;4.62;;;3.80;;
37065;SDS011;22981;43.080;25.550;2024-03-22T12:54:42;4.08;;;3.70;;
37065;SDS011;22981;43.080;25.550;2024-03-22T12:57:10;4.72;;;3.72;;
37065;SDS011;22981;43.080;25.550;2024-03-22T12:59:38;4.70;;;3.83;;
37065;SDS011;22981;43.080;25.550;2024-03-22T13:02:05;3.90;;;3.27;;
37065;SDS011;22981;43.080;25.550;2024-03-22T13:04:34;9.18;;;4.90;;
37065;SDS011;22981;43.080;25.550;2024-03-22T13:07:01;3.62;;;3.33;;
37065;SDS011;22981;43.080;25.550;2024-03-22T13:09:29;4.53;;;4.05;;
37065;SDS011;22981;43.080;25.550;2024-03-22T13:11:56;5.47;;;3.45;;
37065;SDS011;22981;43.080;25.550;2024-03-22T13:14:24;3.50;;;3.02;;
37065;SDS011;22981;43.080;25.550;2024-03-22T13:19:18;3.42;;;3.12;;
37065;SDS011;22981;43.080;25.550;2024-03-22T13:21:46;3.95;;;3.55;;
37065;SDS011;22981;43.080;25.550;2024-03-22T13:24:14;4.35;;;3.12;;
37065;SDS011;22981;43.080;25.550;2024-03-22T13:26:42;5.05;;;3.87;;
37065;SDS011;22981;43.080;25.550;2024-03-22T13:29:10;4.37;;;3.98;;
37065;SDS011;22981;43.080;25.550;2024-03-22T13:31:39;4.83;;;3.25;;
37065;SDS011;22981;43.080;25.550;2024-03-22T13:34:07;5.50;;;3.35;;
37065;SDS011;22981;43.080;25.550;2024-03-22T13:36:34;3.80;;;2.95;;
37065;SDS011;22981;43.080;25.550;2024-03-22T13:39:03;4.42;;;3.40;;
37065;SDS011;22981;43.080;25.550;2024-03-22T13:41:31;4.55;;;3.30;;
37065;SDS011;22981;43.080;25.550;2024-03-22T13:43:58;3.90;;;3.40;;
37065;SDS011;22981;43.080;25.550;2024-03-22T13:46:32;4.08;;;3.02;;
37065;SDS011;22981;43.080;25.550;2024-03-22T13:49:03;3.95;;;3.55;;
37065;SDS011;22981;43.080;25.550;2024-03-22T13:51:31;4.37;;;3.67;;
37065;SDS011;22981;43.080;25.550;2024-03-22T13:53:59;3.70;;;3.17;;
37065;SDS011;22981;43.080;25.550;2024-03-22T13:56:28;5.33;;;3.30;;
37065;SDS011;22981;43.080;25.550;2024-03-22T13:58:56;5.53;;;3.40;;
37065;SDS011;22981;43.080;25.550;2024-03-22T14:01:23;3.87;;;2.83;;
37065;SDS011;22981;43.080;25.550;2024-03-22T14:03:51;4.47;;;3.05;;
37065;SDS011;22981;43.080;25.550;2024-03-22T14:06:19;4.15;;;2.90;;
37065;SDS011;22981;43.080;25.550;2024-03-22T14:08:46;15.90;;;4.28;;
37065;SDS011;22981;43.080;25.550;2024-03-22T14:11:14;4.95;;;2.77;;
37065;SDS011;22981;43.080;25.550;2024-03-22T14:13:41;4.37;;;3.10;;
37065;SDS011;22981;43.080;25.550;2024-03-22T14:16:10;4.05;;;2.90;;
37065;SDS011;22981;43.080;25.550;2024-03-22T14:18:37;7.37;;;5.28;;
37065;SDS011;22981;43.080;25.550;2024-03-22T14:21:05;6.42;;;5.40;;
37065;SDS011;22981;43.080;25.550;2024-03-22T14:23:32;4.10;;;3.70;;
37065;SDS011;22981;43.080;25.550;2024-03-22T14:26:00;3.22;;;2.90;;
37065;SDS011;22981;43.080;25.550;2024-03-22T14:28:27;4.55;;;4.03;;
37065;SDS011;22981;43.080;25.550;2024-03-22T14:30:55;5.00;;;3.87;;
37065;SDS011;22981;43.080;25.550;2024-03-22T14:33:23;3.92;;;3.17;;
37065;SDS011;22981;43.080;25.550;2024-03-22T14:35:50;3.02;;;2.72;;
37065;SDS011;22981;43.080;25.550;2024-03-22T14:38:18;4.10;;;3.20;;